Time;durP1;ratioP1;P1;durP2;ratioP2;P2;SDS_P1;SDS_P2;PMS_P1;PMS_P2;Temp;Humidity;BMP_temperature;BMP_pressure;BME280_temperature;BME280_humidity;BME280_pressure;Samples;Min_cycle;Max_cycle;Signal;HPM_P1;HPM_P2
2023/04/19 00:00:10;;;;;;;11.10;9.90;;;;;;;6.38;100.00;96896.00;7397308;19;20718;-77
2023/04/19 00:02:38;;;;;;;13.27;9.77;;;;;;;6.36;100.00;96907.84;7396223;19;20894;-77
2023/04/19 00:05:08;;;;;;;12.70;9.80;;;;;;;6.34;100.00;96896.84;7398109;19;20710;-77
2023/04/19 00:07:35;;;;;;;14.13;10.77;;;;;;;6.22;100.00;96884.16;7396121;19;20936;-76
2023/04/19 00:10:03;;;;;;;11.40;9.87;;;;;;;6.27;100.00;96893.78;7399947;19;20409;-76
2023/04/19 00:12:29;;;;;;;12.90;11.57;;;;;;;6.10;100.00;96868.81;7396191;19;20939;-76
2023/04/19 00:14:56;;;;;;;12.80;10.63;;;;;;;6.22;100.00;96881.53;7396561;19;20444;-77
2023/04/19 00:17:23;;;;;;;12.80;10.50;;;;;;;6.25;100.00;96886.19;7396621;19;20388;-76
2023/04/19 00:19:51;;;;;;;16.93;10.83;;;;;;;6.14;100.00;96875.06;7397702;19;20390;-76
2023/04/19 00:22:17;;;;;;;12.83;10.47;;;;;;;6.25;100.00;96888.03;7396322;19;20373;-76
2023/04/19 00:24:44;;;;;;;12.40;10.23;;;;;;;6.23;100.00;96881.22;7396411;19;20513;-76
2023/04/19 00:27:11;;;;;;;13.70;11.43;;;;;;;6.18;100.00;96870.03;7397550;19;20369;-76
2023/04/19 00:29:38;;;;;;;15.73;10.70;;;;;;;5.90;100.00;96833.13;7397499;19;20405;-76
2023/04/19 00:32:05;;;;;;;11.30;10.03;;;;;;;6.10;100.00;96863.56;7396471;19;20392;-76
2023/04/19 00:34:32;;;;;;;14.43;11.80;;;;;;;6.15;100.00;96860.88;7396080;19;20448;-76
2023/04/19 00:36:59;;;;;;;13.97;10.33;;;;;;;6.20;100.00;96857.41;7395716;19;20361;-76
2023/04/19 00:39:26;;;;;;;12.83;10.17;;;;;;;6.20;100.00;96873.94;7399143;19;20492;-76
2023/04/19 00:41:52;;;;;;;12.13;9.90;;;;;;;6.13;100.00;96862.22;7396034;19;20460;-76
2023/04/19 00:44:19;;;;;;;14.40;9.77;;;;;;;6.04;100.00;96824.56;7395832;19;20964;-76
2023/04/19 00:46:47;;;;;;;11.43;9.40;;;;;;;6.55;100.00;96869.22;7395334;19;20781;-76
2023/04/19 00:49:17;;;;;;;12.87;8.90;;;;;;;6.27;100.00;96844.69;7397433;19;20422;-76
2023/04/19 00:51:44;;;;;;;12.50;10.00;;;;;;;6.23;100.00;96846.31;7395918;19;20376;-76
2023/04/19 00:54:12;;;;;;;11.60;10.00;;;;;;;6.26;100.00;96863.34;7392908;19;20779;-76
2023/04/19 00:56:40;;;;;;;11.20;8.93;;;;;;;6.12;100.00;96824.69;7396048;19;20381;-76
2023/04/19 00:59:07;;;;;;;14.30;9.90;;;;;;;5.93;100.00;96829.16;7394217;19;20381;-76
2023/04/19 01:01:37;;;;;;;10.40;9.27;;;;;;;5.83;100.00;96822.16;7395350;19;20464;-76
2023/04/19 01:04:04;;;;;;;11.20;9.50;;;;;;;6.02;100.00;96850.31;7394749;19;20421;-77
2023/04/19 01:06:35;;;;;;;12.63;9.80;;;;;;;6.09;100.00;96855.97;7397277;19;20344;-76
2023/04/19 01:09:02;;;;;;;11.40;9.07;;;;;;;5.86;100.00;96810.31;7394678;19;20421;-76
2023/04/19 01:11:29;;;;;;;13.27;9.10;;;;;;;5.91;100.00;96818.16;7393765;19;20416;-76
2023/04/19 01:13:57;;;;;;;11.43;8.90;;;;;;;5.98;100.00;96831.72;7394688;19;20408;-76
2023/04/19 01:16:25;;;;;;;11.57;9.03;;;;;;;5.92;100.00;96827.59;7395711;19;20389;-76
2023/04/19 01:18:53;;;;;;;12.20;10.90;;;;;;;6.04;100.00;96829.81;7393754;19;20482;-76
2023/04/19 01:21:21;;;;;;;12.70;9.57;;;;;;;6.14;100.00;96832.25;7396090;19;20457;-76
2023/04/19 01:23:48;;;;;;;15.70;10.80;;;;;;;5.82;100.00;96783.88;7393628;19;20499;-76
2023/04/19 01:26:16;;;;;;;11.10;9.73;;;;;;;6.20;100.00;96841.66;7395368;19;20378;-76
2023/04/19 01:28:43;;;;;;;10.63;9.37;;;;;;;6.02;100.00;96801.22;7393234;19;20996;-76
2023/04/19 01:31:10;;;;;;;15.77;11.20;;;;;;;6.15;100.00;96794.47;7395183;19;20388;-76
2023/04/19 01:33:37;;;;;;;12.77;11.27;;;;;;;6.19;100.00;96819.84;7393992;19;20432;-76
2023/04/19 01:36:08;;;;;;;14.10;11.27;;;;;;;5.95;100.00;96777.16;7396820;19;20402;-76
2023/04/19 01:38:35;;;;;;;13.50;10.27;;;;;;;5.96;100.00;96776.09;7393778;19;20349;-76
2023/04/19 01:41:02;;;;;;;14.47;11.80;;;;;;;5.86;100.00;96752.59;7395542;19;20396;-76
2023/04/19 01:43:30;;;;;;;13.30;10.57;;;;;;;6.08;100.00;96788.78;7393611;19;20748;-76
2023/04/19 01:45:57;;;;;;;14.43;10.87;;;;;;;6.11;100.00;96798.72;7394244;19;20392;-76
2023/04/19 01:48:24;;;;;;;11.63;10.30;;;;;;;6.09;100.00;96766.72;7394015;19;20380;-76
2023/04/19 01:50:52;;;;;;;12.23;10.20;;;;;;;6.35;100.00;96811.75;7395429;19;20476;-76
2023/04/19 01:53:19;;;;;;;11.23;9.17;;;;;;;6.22;100.00;96779.91;7393996;19;20379;-76
2023/04/19 01:55:45;;;;;;;11.80;9.30;;;;;;;6.31;100.00;96787.13;7395725;19;20409;-76
2023/04/19 01:58:12;;;;;;;12.37;10.03;;;;;;;6.19;100.00;96762.09;7395296;19;20444;-76
2023/04/19 02:00:39;;;;;;;13.43;11.47;;;;;;;6.45;100.00;96801.88;7395281;19;20373;-76
2023/04/19 02:03:06;;;;;;;14.40;11.67;;;;;;;5.99;100.00;96753.75;7393669;19;20376;-76
2023/04/19 02:05:33;;;;;;;11.70;9.90;;;;;;;6.08;100.00;96765.94;7395064;19;20440;-76
2023/04/19 02:08:00;;;;;;;13.90;11.10;;;;;;;6.12;100.00;96774.81;7394609;19;20385;-76
2023/04/19 02:10:29;;;;;;;14.30;12.03;;;;;;;6.29;100.00;96792.69;7391907;19;20764;-76
2023/04/19 02:12:56;;;;;;;13.23;11.23;;;;;;;6.36;100.00;96779.94;7394174;19;20408;-77
2023/04/19 02:15:23;;;;;;;15.57;12.00;;;;;;;6.42;100.00;96784.06;7391464;19;20404;-76
2023/04/19 02:17:50;;;;;;;14.07;11.60;;;;;;;6.16;100.00;96762.69;7394166;19;20409;-76
2023/04/19 02:20:18;;;;;;;11.67;10.27;;;;;;;6.16;100.00;96759.28;7391761;19;20892;-76
2023/04/19 02:22:46;;;;;;;12.47;11.17;;;;;;;6.23;100.00;96773.59;7398264;19;20372;-76
2023/04/19 02:25:15;;;;;;;13.23;11.30;;;;;;;6.18;100.00;96765.78;7396732;19;20445;-76
2023/04/19 02:27:44;;;;;;;14.87;11.80;;;;;;;6.26;100.00;96774.84;7401233;19;20404;-76
2023/04/19 02:30:11;;;;;;;14.43;11.90;;;;;;;6.04;100.00;96740.56;7399781;19;20404;-76
2023/04/19 02:32:38;;;;;;;16.17;11.40;;;;;;;6.20;100.00;96768.13;7401154;19;20409;-76
2023/04/19 02:35:06;;;;;;;12.80;10.80;;;;;;;6.13;100.00;96757.97;7398505;19;20392;-77
2023/04/19 02:37:33;;;;;;;14.30;11.73;;;;;;;5.82;100.00;96699.13;7402269;19;20422;-76
2023/04/19 02:39:59;;;;;;;12.33;11.07;;;;;;;5.97;100.00;96727.00;7399140;19;20778;-76
2023/04/19 02:42:27;;;;;;;14.40;11.43;;;;;;;6.05;100.00;96732.41;7400507;19;20452;-76
2023/04/19 02:44:54;;;;;;;16.57;11.27;;;;;;;6.04;100.00;96719.56;7396800;19;20989;-76
2023/04/19 02:47:23;;;;;;;16.73;11.77;;;;;;;6.26;100.00;96755.69;7400919;19;20361;-76
2023/04/19 02:49:50;;;;;;;13.67;12.00;;;;;;;6.09;100.00;96722.09;7400463;19;20349;-76
2023/04/19 02:52:18;;;;;;;11.23;10.03;;;;;;;6.17;100.00;96724.84;7400258;19;20409;-76
2023/04/19 02:54:45;;;;;;;13.50;10.80;;;;;;;6.39;100.00;96753.09;7397292;19;20436;-76
2023/04/19 02:57:13;;;;;;;15.60;12.10;;;;;;;6.33;100.00;96741.13;7400296;19;20400;-76
2023/04/19 02:59:41;;;;;;;14.00;10.60;;;;;;;6.12;100.00;96718.91;7398567;19;20381;-76
2023/04/19 03:02:08;;;;;;;15.93;11.13;;;;;;;6.30;100.00;96746.19;7400088;19;20409;-76
2023/04/19 03:04:35;;;;;;;12.03;10.60;;;;;;;6.42;100.00;96751.78;7397123;19;20428;-76
2023/04/19 03:07:02;;;;;;;12.70;11.33;;;;;;;6.28;100.00;96737.78;7400071;19;20772;-76
2023/04/19 03:09:29;;;;;;;14.73;11.33;;;;;;;6.24;100.00;96724.47;7399406;19;20428;-76
2023/04/19 03:11:56;;;;;;;13.77;11.30;;;;;;;6.22;100.00;96731.88;7400614;19;20389;-76
2023/04/19 03:14:23;;;;;;;13.13;11.60;;;;;;;6.34;100.00;96747.16;7397195;19;20432;-76
2023/04/19 03:16:50;;;;;;;13.50;11.27;;;;;;;6.28;100.00;96737.78;7400311;19;20746;-76
2023/04/19 03:19:17;;;;;;;12.77;10.00;;;;;;;6.18;100.00;96708.03;7398832;19;20385;-76
2023/04/19 03:21:48;;;;;;;13.20;10.87;;;;;;;6.42;100.00;96738.63;7396925;19;20712;-76
2023/04/19 03:24:26;;;;;;;11.73;9.87;;;;;;;6.52;100.00;96743.69;7397085;19;20424;-77
2023/04/19 03:26:54;;;;;;;13.27;11.63;;;;;;;6.36;100.00;96695.91;7399292;19;20877;-76
2023/04/19 03:29:25;;;;;;;15.70;11.73;;;;;;;6.15;100.00;96687.63;7398936;19;20388;-76
2023/04/19 03:31:58;;;;;;;13.90;10.50;;;;;;;6.28;100.00;96698.41;7399073;19;20431;-76
2023/04/19 03:34:26;;;;;;;13.87;12.40;;;;;;;6.26;100.00;96679.56;7396324;19;20430;-76
2023/04/19 03:36:53;;;;;;;14.87;10.70;;;;;;;6.24;100.00;96685.09;7397910;19;20364;-76
2023/04/19 03:39:20;;;;;;;14.30;11.27;;;;;;;6.41;100.00;96689.78;7399182;19;20394;-76
2023/04/19 03:41:49;;;;;;;12.00;10.50;;;;;;;6.27;100.00;96686.34;7397333;19;20399;-76
2023/04/19 03:44:26;;;;;;;14.63;11.00;;;;;;;6.25;100.00;96675.38;7397803;19;20428;-76
2023/04/19 03:46:53;;;;;;;14.70;12.43;;;;;;;6.42;100.00;96678.22;7397878;19;20376;-76
2023/04/19 03:49:24;;;;;;;14.60;11.50;;;;;;;6.39;100.00;96684.81;7399270;19;20375;-76
2023/04/19 03:52:00;;;;;;;15.70;12.53;;;;;;;6.27;100.00;96662.72;7398318;19;20729;-76
2023/04/19 03:54:27;;;;;;;15.10;12.17;;;;;;;6.31;100.00;96680.25;7395402;19;20441;-75
2023/04/19 03:56:54;;;;;;;19.33;14.33;;;;;;;6.41;100.00;96680.09;7398108;19;20409;-76
2023/04/19 03:59:21;;;;;;;14.13;12.13;;;;;;;6.14;100.00;96653.75;7396426;19;20405;-76
2023/04/19 04:01:48;;;;;;;18.03;13.20;;;;;;;6.21;100.00;96660.19;7397954;19;20420;-76
2023/04/19 04:04:15;;;;;;;15.30;12.73;;;;;;;6.24;100.00;96661.47;7395067;19;20436;-76
2023/04/19 04:06:43;;;;;;;17.37;14.03;;;;;;;6.31;100.00;96668.97;7395534;19;20788;-76
2023/04/19 04:09:13;;;;;;;15.73;11.90;;;;;;;6.42;100.00;96692.16;7396607;19;20407;-76
2023/04/19 04:11:40;;;;;;;14.77;12.20;;;;;;;6.23;100.00;96671.19;7398213;19;20389;-76
2023/04/19 04:14:08;;;;;;;16.03;12.00;;;;;;;6.33;100.00;96672.88;7395255;19;20437;-76
2023/04/19 04:16:37;;;;;;;20.47;12.13;;;;;;;6.28;100.00;96670.34;7397960;19;20380;-76
2023/04/19 04:19:04;;;;;;;18.47;13.20;;;;;;;6.30;100.00;96673.44;7396543;19;20368;-76
2023/04/19 04:21:34;;;;;;;18.47;14.40;;;;;;;6.33;100.00;96678.13;7397742;19;20377;-76
2023/04/19 04:24:03;;;;;;;16.07;11.57;;;;;;;6.39;100.00;96690.06;7395858;19;20849;-76
2023/04/19 04:27:02;;;;;;;17.37;12.13;;;;;;;6.41;100.00;96695.03;7396011;19;20389;-76
2023/04/19 04:29:32;;;;;;;15.70;13.60;;;;;;;5.63;100.00;96575.91;7397349;19;20435;-76
2023/04/19 04:32:08;;;;;;;16.03;11.80;;;;;;;6.29;100.00;96686.88;7396175;19;20809;-76
2023/04/19 04:34:41;;;;;;;15.20;13.10;;;;;;;6.47;100.00;96693.88;7396286;19;20439;-76
2023/04/19 04:37:13;;;;;;;13.50;12.17;;;;;;;6.39;100.00;96687.44;7396177;19;20723;-76
2023/04/19 04:39:40;;;;;;;16.43;14.73;;;;;;;6.29;100.00;96674.53;7395033;19;20404;-76
2023/04/19 04:42:08;;;;;;;15.93;12.63;;;;;;;6.47;100.00;96684.16;7396584;19;20399;-76
2023/04/19 04:44:36;;;;;;;17.07;13.00;;;;;;;6.30;100.00;96667.41;7393110;19;20428;-76
2023/04/19 04:47:04;;;;;;;13.43;12.00;;;;;;;6.31;100.00;96664.50;7394464;19;20895;-76
2023/04/19 04:49:37;;;;;;;12.53;11.20;;;;;;;6.53;100.00;96684.84;7395011;19;20461;-76
2023/04/19 04:52:04;;;;;;;13.10;11.80;;;;;;;6.40;100.00;96667.22;7396298;19;20960;-76
2023/04/19 04:54:37;;;;;;;13.27;11.87;;;;;;;6.40;100.00;96672.47;7393881;19;20998;-76
2023/04/19 04:57:09;;;;;;;14.90;12.17;;;;;;;6.30;100.00;96657.69;7396503;19;20771;-76
2023/04/19 04:59:36;;;;;;;13.17;11.60;;;;;;;6.00;100.00;96601.25;7395242;19;20380;-76
2023/04/19 05:02:03;;;;;;;16.80;12.00;;;;;;;6.49;100.00;96682.03;7396432;19;20938;-76
2023/04/19 05:04:30;;;;;;;19.40;14.47;;;;;;;6.42;100.00;96654.59;7394122;19;20432;-76
2023/04/19 05:06:57;;;;;;;15.87;13.07;;;;;;;6.40;100.00;96648.84;7394385;19;20385;-76
2023/04/19 05:09:26;;;;;;;15.00;13.23;;;;;;;6.30;100.00;96634.06;7395123;19;20454;-76
2023/04/19 05:11:53;;;;;;;14.93;11.77;;;;;;;6.63;100.00;96681.25;7396573;19;20403;-76
2023/04/19 05:14:20;;;;;;;14.97;12.83;;;;;;;6.42;100.00;96649.34;7393433;19;20437;-76
2023/04/19 05:16:47;;;;;;;16.60;13.33;;;;;;;6.55;100.00;96658.31;7396412;19;20960;-76
2023/04/19 05:19:14;;;;;;;16.17;13.77;;;;;;;6.56;100.00;96655.38;7394646;19;20396;-76
2023/04/19 05:21:47;;;;;;;17.40;15.50;;;;;;;6.63;100.00;96676.78;7393266;19;20951;-76
2023/04/19 05:24:14;;;;;;;19.07;14.77;;;;;;;6.31;100.00;96622.50;7393825;19;20423;-76
2023/04/19 05:26:42;;;;;;;19.73;15.60;;;;;;;6.57;100.00;96677.19;7392191;19;20476;-76
2023/04/19 05:29:10;;;;;;;19.50;16.10;;;;;;;6.65;100.00;96663.34;7394847;19;20380;-76
2023/04/19 05:31:46;;;;;;;23.93;17.33;;;;;;;6.43;100.00;96635.91;7393890;19;20400;-76
2023/04/19 05:34:23;;;;;;;22.83;18.20;;;;;;;6.47;100.00;96636.09;7394328;19;20503;-76
2023/04/19 05:36:51;;;;;;;21.30;16.47;;;;;;;6.68;100.00;96654.91;7393918;19;20484;-76
2023/04/19 05:39:18;;;;;;;22.63;15.90;;;;;;;6.79;100.00;96667.53;7395749;19;20437;-76
2023/04/19 05:41:45;;;;;;;24.37;16.97;;;;;;;6.61;100.00;96649.25;7395467;19;20363;-76
2023/04/19 05:44:12;;;;;;;19.83;16.53;;;;;;;6.58;100.00;96648.00;7395067;19;20434;-76
2023/04/19 05:46:39;;;;;;;20.83;17.07;;;;;;;6.73;100.00;96652.94;7392670;19;20415;-76
2023/04/19 05:49:09;;;;;;;23.83;16.97;;;;;;;6.56;100.00;96633.59;7395035;19;20428;-76
2023/04/19 05:51:45;;;;;;;27.23;19.73;;;;;;;6.58;100.00;96657.72;7394780;19;20386;-76
2023/04/19 05:54:44;;;;;;;21.53;17.47;;;;;;;6.54;100.00;96647.00;7392216;19;20484;-76
2023/04/19 05:57:12;;;;;;;23.30;17.00;;;;;;;6.56;100.00;96654.59;7398166;19;20829;-76
2023/04/19 05:59:38;;;;;;;23.43;17.93;;;;;;;6.46;100.00;96647.69;7401185;19;20377;-76
2023/04/19 06:02:06;;;;;;;20.03;16.80;;;;;;;6.32;100.00;96647.69;7402803;19;20412;-75
2023/04/19 06:04:33;;;;;;;21.17;16.93;;;;;;;6.34;100.00;96645.53;7399654;19;20444;-75
2023/04/19 06:07:01;;;;;;;20.83;17.13;;;;;;;6.29;100.00;96629.09;7400343;19;20376;-75
2023/04/19 06:09:31;;;;;;;26.17;18.40;;;;;;;6.38;100.00;96648.34;7401702;19;20397;-75
2023/04/19 06:11:58;;;;;;;20.77;16.87;;;;;;;6.18;100.00;96642.41;7402371;19;20401;-75
2023/04/19 06:14:27;;;;;;;21.97;16.83;;;;;;;6.21;100.00;96636.56;7399249;19;20428;-75
2023/04/19 06:16:54;;;;;;;21.03;17.30;;;;;;;6.03;100.00;96634.81;7399706;19;20402;-75
2023/04/19 06:19:22;;;;;;;21.30;15.77;;;;;;;6.06;100.00;96631.59;7402350;19;20353;-74
2023/04/19 06:21:48;;;;;;;21.60;15.73;;;;;;;6.00;100.00;96624.09;7399480;19;20352;-74
2023/04/19 06:24:15;;;;;;;19.77;15.10;;;;;;;5.99;100.00;96631.19;7401362;19;20425;-75
2023/04/19 06:26:42;;;;;;;19.53;14.60;;;;;;;5.82;100.00;96596.81;7397477;19;20356;-75
2023/04/19 06:29:09;;;;;;;19.47;16.03;;;;;;;5.89;100.00;96605.09;7402540;19;20365;-75
2023/04/19 06:31:36;;;;;;;21.00;15.27;;;;;;;6.04;100.00;96615.38;7400724;19;20873;-75
2023/04/19 06:34:03;;;;;;;20.40;15.03;;;;;;;6.01;100.00;96636.13;7399982;19;20451;-75
2023/04/19 06:36:31;;;;;;;16.03;13.80;;;;;;;5.90;100.00;96617.97;7399018;19;20908;-75
2023/04/19 06:38:58;;;;;;;20.50;16.37;;;;;;;6.03;100.00;96634.03;7400941;19;20341;-75
2023/04/19 06:41:25;;;;;;;18.57;14.87;;;;;;;5.82;100.00;96612.56;7399182;19;20416;-75
2023/04/19 06:43:52;;;;;;;20.80;15.60;;;;;;;5.79;100.00;96626.25;7401010;19;20401;-75
2023/04/19 06:46:19;;;;;;;11.90;10.33;;;;;;;5.57;100.00;96604.03;7399121;19;20369;-75
2023/04/19 06:48:46;;;;;;;20.73;16.00;;;;;;;5.61;100.00;96625.25;7400630;19;20393;-75
2023/04/19 06:51:13;;;;;;;15.17;11.87;;;;;;;5.58;100.00;96631.81;7398569;19;20396;-75
2023/04/19 06:53:39;;;;;;;21.50;17.17;;;;;;;5.40;100.00;96595.91;7400957;19;20400;-75
2023/04/19 06:56:06;;;;;;;18.57;15.43;;;;;;;5.35;100.00;96588.13;7398861;19;20412;-75
2023/04/19 06:58:33;;;;;;;21.80;17.70;;;;;;;5.64;100.00;96629.91;7401669;19;20456;-75
2023/04/19 07:01:04;;;;;;;19.20;14.00;;;;;;;5.55;100.00;96603.53;7398804;19;20381;-75
2023/04/19 07:03:31;;;;;;;26.53;17.80;;;;;;;5.69;100.00;96635.06;7401703;19;21189;-74
2023/04/19 07:05:58;;;;;;;23.53;16.60;;;;;;;5.72;100.00;96631.06;7399049;19;20694;-74
2023/04/19 07:08:25;;;;;;;22.77;18.00;;;;;;;5.49;100.00;96601.31;7399482;19;20412;-74
2023/04/19 07:11:08;;;;;;;23.03;17.03;;;;;;;5.43;100.00;96602.44;7400961;19;20364;-74
2023/04/19 07:13:35;;;;;;;18.87;15.87;;;;;;;5.42;100.00;96603.50;7398678;19;20426;-74
2023/04/19 07:16:06;;;;;;;24.90;20.23;;;;;;;5.60;100.00;96632.31;7400644;19;20380;-74
2023/04/19 07:18:33;;;;;;;23.60;19.17;;;;;;;5.41;100.00;96605.34;7398371;19;20734;-75
2023/04/19 07:21:00;;;;;;;21.20;17.10;;;;;;;5.66;100.00;96634.88;7398888;19;20912;-75
2023/04/19 07:23:26;;;;;;;24.40;17.77;;;;;;;5.57;100.00;96613.75;7397133;19;20925;-75
2023/04/19 07:25:53;;;;;;;23.50;18.30;;;;;;;5.73;100.00;96630.00;7398490;19;20386;-75
2023/04/19 07:28:20;;;;;;;23.63;15.33;;;;;;;5.55;100.00;96626.38;7396765;19;20998;-75
2023/04/19 07:30:47;;;;;;;22.37;16.40;;;;;;;5.62;100.00;96634.66;7398497;19;20384;-75
2023/04/19 07:33:14;;;;;;;20.33;16.50;;;;;;;5.58;100.00;96623.16;7397500;19;20441;-75
2023/04/19 07:35:41;;;;;;;27.63;18.53;;;;;;;5.54;100.00;96632.69;7398993;19;20365;-75
2023/04/19 07:38:08;;;;;;;21.40;15.63;;;;;;;5.41;100.00;96615.81;7397414;19;20361;-75
2023/04/19 07:40:35;;;;;;;20.13;15.70;;;;;;;5.82;100.00;96644.03;7398729;19;20349;-75
2023/04/19 07:43:02;;;;;;;23.33;13.97;;;;;;;5.63;100.00;96641.47;7397573;19;20353;-75
2023/04/19 07:45:29;;;;;;;17.97;15.97;;;;;;;5.60;100.00;96644.63;7396149;19;20436;-75
2023/04/19 07:47:57;;;;;;;18.77;14.50;;;;;;;5.05;100.00;96573.63;7395175;19;20377;-75
2023/04/19 07:50:27;;;;;;;19.83;16.30;;;;;;;5.19;100.00;96610.38;7398356;19;20737;-76
2023/04/19 07:52:55;;;;;;;17.37;13.57;;;;;;;5.29;100.00;96628.59;7397121;19;20393;-75
2023/04/19 07:55:22;;;;;;;19.10;13.90;;;;;;;5.04;100.00;96612.16;7398047;19;20393;-75
2023/04/19 07:57:49;;;;;;;20.03;12.87;;;;;;;5.15;100.00;96633.75;7397178;19;20407;-75
2023/04/19 08:00:22;;;;;;;20.10;14.30;;;;;;;5.28;100.00;96642.75;7399645;19;20381;-75
2023/04/19 08:02:49;;;;;;;24.43;14.97;;;;;;;5.13;100.00;96648.22;7397289;19;20345;-75
2023/04/19 08:05:17;;;;;;;13.70;12.27;;;;;;;4.72;100.00;96614.69;7396739;19;20436;-75
2023/04/19 08:07:44;;;;;;;15.63;12.93;;;;;;;5.05;100.00;96647.78;7395202;19;20401;-75
2023/04/19 08:10:11;;;;;;;14.17;11.80;;;;;;;4.70;100.00;96628.06;7398611;19;20384;-75
2023/04/19 08:12:40;;;;;;;15.77;12.57;;;;;;;5.02;100.00;96658.81;7398360;19;20391;-75
2023/04/19 08:15:26;;;;;;;12.53;10.40;;;;;;;4.85;100.00;96666.38;7396827;19;20427;-75
2023/04/19 08:18:13;;;;;;;13.60;11.30;;;;;;;4.80;100.00;96668.25;7399720;19;20345;-75
2023/04/19 08:20:45;;;;;;;17.53;12.80;;;;;;;4.86;100.00;96673.19;7410021;19;20357;-75
2023/04/19 08:23:12;;;;;;;12.07;10.70;;;;;;;4.63;100.00;96650.41;7423985;19;20344;-75
2023/04/19 08:25:51;;;;;;;12.40;10.43;;;;;;;4.82;100.00;96666.94;7397245;19;20401;-75
2023/04/19 08:28:18;;;;;;;12.20;9.20;;;;;;;4.74;100.00;96686.66;7395330;19;21039;-75
2023/04/19 08:30:45;;;;;;;10.73;8.90;;;;;;;4.55;100.00;96649.19;7396957;19;20968;-75
2023/04/19 08:33:12;;;;;;;12.00;8.97;;;;;;;4.60;100.00;96685.78;7395227;19;20408;-75
2023/04/19 08:35:40;;;;;;;10.73;8.43;;;;;;;4.60;100.00;96682.38;7396363;19;20389;-75
2023/04/19 08:38:08;;;;;;;15.00;9.73;;;;;;;4.67;100.00;96674.97;7394862;19;20394;-74
2023/04/19 08:40:44;;;;;;;10.77;9.60;;;;;;;4.41;100.00;96650.91;7398425;19;20361;-75
2023/04/19 08:43:11;;;;;;;10.30;8.47;;;;;;;4.44;100.00;96651.13;7395967;19;20455;-75
2023/04/19 08:45:38;;;;;;;15.53;10.80;;;;;;;4.43;100.00;96665.28;7397069;19;20376;-75
2023/04/19 08:48:09;;;;;;;11.93;8.87;;;;;;;4.44;100.00;96681.78;7393345;19;20959;-75
2023/04/19 08:50:38;;;;;;;13.23;8.77;;;;;;;4.47;100.00;96656.88;7397516;19;20396;-75
2023/04/19 08:53:22;;;;;;;9.30;8.40;;;;;;;4.51;100.00;96669.13;7397043;19;20768;-75
2023/04/19 08:55:57;;;;;;;13.30;9.53;;;;;;;4.49;100.00;96662.59;7394261;19;20408;-75
2023/04/19 08:58:43;;;;;;;13.60;10.03;;;;;;;4.63;100.00;96669.50;7396738;19;20385;-75
2023/04/19 09:01:13;;;;;;;12.07;9.57;;;;;;;4.62;100.00;96654.06;7394800;19;20405;-75
2023/04/19 09:03:56;;;;;;;12.30;8.17;;;;;;;4.66;100.00;96673.41;7398243;19;20393;-75
2023/04/19 09:06:39;;;;;;;11.33;8.97;;;;;;;4.56;100.00;96658.59;7395955;19;20380;-75
2023/04/19 09:09:15;;;;;;;9.70;8.10;;;;;;;4.75;100.00;96664.66;7394944;19;20373;-75
2023/04/19 09:12:01;;;;;;;10.60;8.40;;;;;;;4.86;100.00;96654.06;7394553;19;20356;-75
2023/04/19 09:14:28;;;;;;;9.17;6.93;;;;;;;4.80;100.00;96642.84;7394515;19;20432;-75
2023/04/19 09:17:12;;;;;;;8.97;8.03;;;;;;;5.18;100.00;96667.25;7395647;19;20751;-75
2023/04/19 09:19:47;;;;;;;9.70;7.90;;;;;;;5.23;100.00;96654.09;7396405;19;20892;-75
2023/04/19 09:22:14;;;;;;;7.53;6.80;;;;;;;5.18;100.00;96654.16;7394338;19;20810;-75
2023/04/19 09:24:42;;;;;;;11.63;7.90;;;;;;;5.27;100.00;96641.19;7396882;19;20396;-75
2023/04/19 09:27:12;;;;;;;8.13;7.30;;;;;;;5.29;100.00;96658.19;7395370;19;20353;-75
2023/04/19 09:29:39;;;;;;;9.70;8.50;;;;;;;5.42;100.00;96643.59;7397998;19;20418;-75
2023/04/19 09:32:06;;;;;;;10.23;8.43;;;;;;;5.31;100.00;96656.06;7393604;19;20488;-75
2023/04/19 09:34:33;;;;;;;8.67;7.70;;;;;;;5.40;100.00;96639.72;7394987;19;20416;-75
2023/04/19 09:37:13;;;;;;;9.50;7.67;;;;;;;5.46;100.00;96651.66;7394626;19;20455;-75
2023/04/19 09:40:03;;;;;;;10.00;8.77;;;;;;;5.31;100.00;96642.97;7395280;19;20369;-75
2023/04/19 09:43:00;;;;;;;7.40;6.73;;;;;;;5.46;100.00;96631.47;7395543;19;20394;-75
2023/04/19 09:45:41;;;;;;;8.10;7.40;;;;;;;5.55;100.00;96623.75;7392542;19;20509;-75
2023/04/19 09:48:10;;;;;;;11.13;9.40;;;;;;;5.97;100.00;96619.41;7392425;19;20396;-75
2023/04/19 09:50:54;;;;;;;9.27;8.37;;;;;;;6.24;100.00;96645.72;7394968;19;21048;-75
2023/04/19 09:53:32;;;;;;;11.50;8.90;;;;;;;6.40;100.00;96636.47;7395362;19;20732;-75
2023/04/19 09:56:01;;;;;;;8.60;7.80;;;;;;;6.88;100.00;96637.94;7394606;19;20351;-75
2023/04/19 09:58:30;;;;;;;8.93;7.60;;;;;;;6.94;100.00;96624.38;7394933;19;20942;-75
2023/04/19 10:01:16;;;;;;;9.10;7.97;;;;;;;6.61;100.00;96609.84;7394049;19;20383;-75
2023/04/19 10:03:44;;;;;;;11.73;8.77;;;;;;;6.80;100.00;96608.63;7394432;19;20412;-75
2023/04/19 10:06:16;;;;;;;8.07;7.27;;;;;;;7.08;100.00;96624.38;7393420;19;20393;-75
2023/04/19 10:09:04;;;;;;;8.43;7.60;;;;;;;7.12;100.00;96620.09;7394645;19;20362;-75
2023/04/19 10:11:39;;;;;;;8.37;7.47;;;;;;;7.16;100.00;96613.16;7394145;19;20382;-75
2023/04/19 10:14:10;;;;;;;9.23;6.93;;;;;;;7.16;100.00;96609.75;7392280;19;20388;-75
2023/04/19 10:16:38;;;;;;;7.60;6.90;;;;;;;7.15;100.00;96585.31;7396117;19;20356;-75
2023/04/19 10:19:08;;;;;;;6.67;5.53;;;;;;;7.09;100.00;96626.72;7393168;19;20376;-75
2023/04/19 10:21:37;;;;;;;6.50;5.30;;;;;;;7.29;100.00;96619.44;7395370;19;20758;-75
2023/04/19 10:24:04;;;;;;;5.80;5.30;;;;;;;7.50;100.00;96590.84;7392584;19;20965;-75
2023/04/19 10:27:03;;;;;;;6.30;5.30;;;;;;;7.95;100.00;96621.28;7394987;19;20377;-75
2023/04/19 10:30:04;;;;;;;4.93;4.60;;;;;;;8.05;100.00;96624.75;7393963;19;20444;-75
2023/04/19 10:32:38;;;;;;;6.80;5.90;;;;;;;8.12;100.00;96614.56;7428762;19;20376;-74
2023/04/19 10:35:19;;;;;;;9.63;7.13;;;;;;;8.28;100.00;96613.09;7397028;19;20405;-75
2023/04/19 10:38:02;;;;;;;5.80;5.20;;;;;;;7.68;100.00;96593.25;7396028;19;20356;-75
2023/04/19 10:40:54;;;;;;;4.80;4.37;;;;;;;7.78;100.00;96621.19;7393125;19;20928;-75
2023/04/19 10:43:54;;;;;;;5.83;5.00;;;;;;;8.11;100.00;96608.50;7393124;19;20445;-75
2023/04/19 10:46:21;;;;;;;5.50;5.00;;;;;;;7.87;100.00;96610.69;7398356;19;20443;-76
2023/04/19 10:48:54;;;;;;;6.07;5.57;;;;;;;7.96;100.00;96607.03;7398223;19;20396;-75
2023/04/19 10:51:26;;;;;;;6.37;5.77;;;;;;;8.05;100.00;96582.63;7400772;19;20384;-75
2023/04/19 10:53:59;;;;;;;5.33;4.83;;;;;;;8.35;100.00;96588.97;7400250;19;20433;-75
2023/04/19 10:56:32;;;;;;;4.80;4.10;;;;;;;8.52;100.00;96587.16;7399719;19;20401;-75
2023/04/19 10:58:59;;;;;;;6.83;4.33;;;;;;;8.04;100.00;96584.47;7402831;19;20729;-75
2023/04/19 11:01:45;;;;;;;4.73;3.63;;;;;;;8.20;100.00;96582.22;7401281;19;20365;-75
2023/04/19 11:04:18;;;;;;;4.07;3.20;;;;;;;8.55;100.00;96575.25;7397754;19;20462;-75
2023/04/19 11:06:51;;;;;;;1.80;1.70;;;;;;;8.51;94.82;96574.28;7400249;19;20368;-75
2023/04/19 11:09:33;;;;;;;3.13;2.63;;;;;;;8.66;92.63;96563.31;7399706;19;20376;-75
2023/04/19 11:12:07;;;;;;;3.73;2.23;;;;;;;8.83;93.43;96573.91;7398032;19;20408;-75
2023/04/19 11:14:35;;;;;;;3.30;2.83;;;;;;;9.03;94.30;96569.88;7399640;19;20412;-75
2023/04/19 11:17:26;;;;;;;2.73;2.23;;;;;;;9.26;85.01;96581.06;7398395;19;20397;-75
2023/04/19 11:19:58;;;;;;;3.80;3.43;;;;;;;9.74;93.80;96577.41;7401849;19;20413;-75
2023/04/19 11:22:32;;;;;;;4.53;3.20;;;;;;;9.45;99.83;96541.91;7399201;19;20376;-75
2023/04/19 11:25:12;;;;;;;4.33;3.57;;;;;;;9.94;100.00;96560.91;7396026;19;20436;-75
2023/04/19 11:27:41;;;;;;;3.93;2.37;;;;;;;9.54;92.24;96565.66;7398005;19;20391;-75
2023/04/19 11:30:11;;;;;;;3.00;2.70;;;;;;;10.08;88.82;96553.56;7398296;19;20356;-75
2023/04/19 11:32:47;;;;;;;2.83;2.63;;;;;;;10.21;79.49;96572.16;7399723;19;20413;-75
2023/04/19 11:35:19;;;;;;;3.10;1.73;;;;;;;9.99;77.50;96575.81;7396403;19;20432;-75